Seward Airport Seward US
ICAO: PAWD
IATA:
Category: Medium
Scheduled Services:

Elevation: 22 ft
TransAlt. 18000 ft.

Airport Communications:
ASOS:135.2
CTAF:122.9
KENAI RDO:122.6

PAWD Zoom In..

If you have problems with the map follow the link
https://www.worldairports.se/pages/airport.php?
ICAO=PAWD

Runways:

(A) RW 13 length 4533 ft width 100 ft
---- / hdg 127

(B) RW 16 length 2289 ft width 75 ft
---- / hdg 158

(C) RW 31 length 4533 ft width 100 ft
---- / hdg 307

(D) RW 34 length 2289 ft width 75 ft
---- / hdg 338

Location; PAWD
Day. 21 / Time. 20.53 Zulu
* Altimeter: 29.46
* Temperature: -06° c. -21.2°f.
* Wind from: 360° Speed 06 kn.
Dewpoint: -09° c.
Visibility: 3/4 Statute Miles.
Conditions: Light Snow.

PAWD 212053Z AUTO 36006KT 3/4SM -SN VV018 M06/M09 A2946 RMK AO2 SNB37 SLP975 P0000 60000 T10611089 55000 TSNO $


Wind From 360°
Speed 06 kn.

 
 
jpsmedia worldairports.se 2020   terms of use